createdAt,value
2022-12-11T08:47:00.931Z,72.17
2022-12-11T08:52:04.107Z,70.73
2022-12-11T08:57:06.758Z,69.79
2022-12-11T09:02:13.006Z,68.96
2022-12-11T09:07:15.763Z,68.01
2022-12-11T09:12:18.474Z,67.16
2022-12-11T09:17:22.430Z,65.98
2022-12-11T09:22:25.009Z,65.52
2022-12-11T09:27:27.740Z,64.89
2022-12-11T09:32:31.669Z,64.17
2022-12-11T09:37:34.433Z,63.52
2022-12-11T09:42:49.185Z,63.22
2022-12-11T09:47:54.513Z,62.77
2022-12-11T09:53:07.201Z,62.17
2022-12-11T09:58:17.217Z,62.23
2022-12-11T10:03:57.374Z,62.37
2022-12-11T10:09:06.389Z,62.34
2022-12-11T10:14:14.368Z,61.89
2022-12-11T10:19:21.955Z,61.81
2022-12-11T10:25:07.608Z,61.07
2022-12-11T10:30:03.034Z,60.97
2022-12-11T10:35:08.392Z,61.08
2022-12-11T10:40:11.816Z,60.67
2022-12-11T10:45:17.122Z,60.57
2022-12-11T10:50:26.627Z,60.42
2022-12-11T10:55:31.253Z,60.27
2022-12-11T11:00:37.450Z,60.28
2022-12-11T11:05:46.207Z,60.39
2022-12-11T11:10:53.961Z,60.13
2022-12-11T11:16:01.296Z,60.15
2022-12-11T11:21:05.527Z,59.78
2022-12-11T11:26:09.191Z,59.48
2022-12-11T11:31:13.663Z,59.60
2022-12-11T11:36:22.330Z,59.42
2022-12-11T11:41:28.746Z,59.76
2022-12-11T11:46:36.557Z,59.89
2022-12-11T11:51:42.967Z,59.86
2022-12-11T11:56:45.631Z,59.54
2022-12-11T12:01:48.362Z,59.11
2022-12-11T12:07:10.020Z,60.23
2022-12-11T12:12:25.470Z,61.01
2022-12-11T12:17:36.140Z,62.02
2022-12-11T12:22:53.067Z,62.36
2022-12-11T12:28:01.148Z,62.59
2022-12-11T12:33:14.907Z,62.33
2022-12-11T12:38:23.077Z,62.59
2022-12-11T12:43:36.475Z,62.76
2022-12-11T12:48:39.065Z,63.07
2022-12-11T12:53:47.433Z,63.54
2022-12-11T12:58:50.093Z,63.92
2022-12-11T13:03:56.467Z,63.93
2022-12-11T13:09:11.908Z,64.03
2022-12-11T13:14:28.672Z,64.28
2022-12-11T13:19:37.652Z,65.07
2022-12-11T13:24:48.483Z,65.41
2022-12-11T13:29:51.364Z,65.74
2022-12-11T13:34:57.468Z,66.02
2022-12-11T13:40:01.992Z,66.28
2022-12-11T13:45:05.984Z,66.93
2022-12-11T13:50:16.171Z,66.88
2022-12-11T13:55:24.944Z,67.71
2022-12-11T14:00:32.036Z,67.88
2022-12-11T14:05:35.138Z,67.99
2022-12-11T14:10:40.027Z,68.31
2022-12-11T14:15:45.487Z,68.90
2022-12-11T14:20:55.009Z,68.76
2022-12-11T14:26:00.629Z,68.93
2022-12-11T14:31:04.192Z,68.98
2022-12-11T14:36:08.046Z,69.30
2022-12-11T14:41:18.287Z,69.73
2022-12-11T14:46:23.615Z,69.88
2022-12-11T14:51:29.910Z,69.98
2022-12-11T14:56:34.030Z,70.14
2022-12-11T15:01:38.565Z,70.29
2022-12-11T15:06:45.401Z,70.57
2022-12-11T15:11:50.321Z,70.78
2022-12-11T15:16:55.031Z,71.08
2022-12-11T15:22:02.873Z,71.22
2022-12-11T15:27:07.603Z,71.38
2022-12-11T15:32:19.502Z,71.05
2022-12-11T15:37:24.209Z,71.18
2022-12-11T15:42:31.294Z,71.48
2022-12-11T15:47:33.939Z,71.61
2022-12-11T15:52:36.574Z,71.85
2022-12-11T15:57:41.144Z,71.73
2022-12-11T16:02:43.965Z,71.98
2022-12-11T16:07:46.629Z,72.05
2022-12-11T16:12:50.649Z,72.43
2022-12-11T16:18:00.832Z,72.43
2022-12-11T16:23:03.760Z,72.37
2022-12-11T16:28:08.362Z,72.41
2022-12-11T16:33:13.102Z,72.34
2022-12-11T16:38:16.109Z,72.53
2022-12-11T16:43:20.068Z,72.56
2022-12-11T16:48:24.055Z,72.72
2022-12-11T16:53:26.638Z,72.48
2022-12-11T16:58:30.713Z,72.74
2022-12-11T17:03:33.325Z,72.92
2022-12-11T17:08:36.026Z,72.93
2022-12-11T17:13:40.204Z,72.75
2022-12-11T17:18:43.706Z,72.91
2022-12-11T17:23:46.351Z,73.21
2022-12-11T17:28:50.288Z,73.29
2022-12-11T17:33:53.867Z,72.86
2022-12-11T17:38:56.578Z,73.16
2022-12-11T17:44:00.548Z,73.08
2022-12-11T17:49:03.478Z,73.20
2022-12-11T17:54:06.160Z,73.02
2022-12-11T17:59:10.071Z,73.05
2022-12-11T18:04:13.101Z,73.23
2022-12-11T18:09:15.805Z,73.48
2022-12-11T18:14:19.728Z,73.34
2022-12-11T18:19:22.724Z,73.38
2022-12-11T18:24:25.780Z,73.28
2022-12-11T18:29:29.765Z,73.39
2022-12-11T18:34:32.406Z,73.26
2022-12-11T18:39:35.208Z,73.48
2022-12-11T18:44:39.106Z,73.60
2022-12-11T18:49:41.930Z,73.48
2022-12-11T18:54:44.774Z,73.38
2022-12-11T18:59:51.699Z,73.34
2022-12-11T19:04:54.347Z,73.37
2022-12-11T19:09:56.951Z,73.56
2022-12-11T19:15:00.916Z,73.41
2022-12-11T19:20:25.030Z,73.27
2022-12-11T19:25:27.291Z,73.60
2022-12-11T19:30:31.205Z,73.54
2022-12-11T19:35:34.924Z,73.29
2022-12-11T19:40:40.565Z,73.59
2022-12-11T19:45:45.747Z,73.53
2022-12-11T19:50:48.345Z,73.16
2022-12-11T19:55:51.760Z,73.32
2022-12-11T20:00:56.368Z,73.18
2022-12-11T20:06:03.074Z,73.48
2022-12-11T20:11:06.530Z,73.34
2022-12-11T20:16:13.843Z,73.29
2022-12-11T20:21:18.470Z,73.21
2022-12-11T20:26:23.924Z,73.25
2022-12-11T20:31:28.038Z,73.33
2022-12-11T20:36:30.844Z,73.19
2022-12-11T20:41:33.634Z,73.50
2022-12-11T20:46:37.622Z,73.41
2022-12-11T20:51:40.799Z,73.22
2022-12-11T20:56:43.476Z,73.41
2022-12-11T21:01:47.537Z,73.47
2022-12-11T21:06:55.319Z,73.53
2022-12-11T21:11:59.966Z,73.34
2022-12-11T21:17:04.068Z,72.98
2022-12-11T21:22:06.761Z,73.25
2022-12-11T21:27:09.691Z,73.00
2022-12-11T21:32:14.183Z,73.37
2022-12-11T21:37:16.853Z,73.42
2022-12-11T21:42:19.499Z,73.10
2022-12-11T21:47:24.577Z,73.54
2022-12-11T21:52:27.290Z,73.17
2022-12-11T21:57:30.067Z,73.54
2022-12-11T22:02:39.125Z,73.76
2022-12-11T22:07:43.736Z,73.64
2022-12-11T22:12:46.409Z,73.87
2022-12-11T22:17:50.436Z,73.65
2022-12-11T22:22:53.135Z,73.73
2022-12-11T22:27:56.061Z,73.65
2022-12-11T22:33:00.128Z,73.77
2022-12-11T22:38:03.028Z,74.22
2022-12-11T22:43:05.734Z,73.83
2022-12-11T22:48:10.233Z,74.04
2022-12-11T22:53:12.974Z,74.77
2022-12-11T22:58:21.427Z,75.07
2022-12-11T23:03:25.889Z,75.34
2022-12-11T23:08:28.748Z,75.32
2022-12-11T23:13:31.463Z,75.58
2022-12-11T23:18:35.512Z,75.29
2022-12-11T23:23:38.277Z,75.51
2022-12-11T23:28:40.976Z,75.43
2022-12-11T23:33:45.061Z,75.36
2022-12-11T23:38:54.142Z,75.69
2022-12-11T23:43:57.372Z,75.45
2022-12-11T23:49:01.465Z,75.65
2022-12-11T23:54:04.145Z,75.49
2022-12-11T23:59:07.008Z,75.67
